« Back
NWS Peachtree City, Ga » Text Product » CSG Terminal Aerodrome Forecast


Printer-friendly Version
Current Version              Previous Versions:   1  2  3  4  5  6  7  8  9  

Terminal Aerodrome Forecast

803
FTUS42 KFFC 191100
TAFCSG
TAF
KCSG 191133Z 1912/2012 02005KT P6SM SCT250
     FM191500 06003KT P6SM FEW250
     FM200000 00000KT P6SM FEW250=

USA.gov is the U.S. government's official web portal to all federal, state and local government web resources and services.